DW5145 Weather Reports


Display with metric or nautical units.
time (UTC)temp
F
wind
direction
speed
MPH
gust
MPH
rain 1hr
in
rain 24hr
in
rain mn
in
humidity
%
barometer
mb
20180821081557 61 99 11.0 16.0 0.00 0.00 0.00 97 1013.4
20180821080107 62 109 14.0 19.0 0.00 0.00 0.00 97 1013.6
20180821074626 61 109 13.0 17.0 0.00 0.00 0.00 96 1013.6
20180821073107 62 94 8.0 11.0 0.00 0.00 0.00 96 1013.8
20180821071616 62 135 6.0 9.0 0.00 0.00 0.00 95 1013.7
20180821070057 63 111 0.0 8.0 0.00 0.00 0.00 95 1013.6
20180821064545 63 107 7.0 8.0 0.00 0.00 0.00 94 1013.4
20180821063041 64 121 3.0 5.0 0.00 0.00 0.00 93 1013.4
20180821061540 64 115 5.0 7.0 0.00 0.00 0.00 93 1013.4
20180821060100 65 161 3.0 6.0 0.00 0.00 0.00 92 1013.3
20180821054544 65 146 5.0 7.0 0.00 0.00 0.00 90 1013.3
20180821053045 66 130 4.0 5.0 0.00 0.00 0.00 88 1013.4
20180821051537 67 132 3.0 4.0 0.00 0.00 0.00 86 1013.3
20180821050037 68 105 3.0 5.0 0.00 0.00 0.00 85 1013.3
20180821044537 68 336 2.0 3.0 0.00 0.00 0.00 87 1013.1
20180821043052 67 296 1.0 2.0 0.00 0.00 0.00 90 1013.0
20180821041606 65 296 0.0 2.0 0.00 0.00 0.00 91 1012.9
20180821040055 65 296 0.0 2.0 0.00 0.00 0.00 89 1012.7
20180821034543 68 360 0.0 2.0 0.00 0.00 0.00 82 1012.6
20180821033039 69 38 2.0 4.0 0.00 0.00 0.00 85 1012.6
20180821031539 67 288 3.0 4.0 0.00 0.00 0.00 91 1012.5
20180821030038 65 287 0.0 3.0 0.00 0.00 0.00 91 1012.5
20180821024533 65 287 2.0 5.0 0.00 0.00 0.00 90 1012.3
20180821023033 66 287 3.0 5.0 0.00 0.00 0.00 88 1012.3
20180821021541 68 291 4.0 7.0 0.00 0.00 0.00 86 1012.2
20180821020032 69 294 4.0 9.0 0.00 0.00 0.00 84 1012.3
20180821014550 69 303 5.0 7.0 0.00 0.00 0.00 83 1012.2
20180821013038 70 285 4.0 8.0 0.00 0.00 0.00 83 1012.2
20180821011544 70 294 6.0 10.0 0.00 0.00 0.00 82 1012.2
20180821010028 71 306 6.0 11.0 0.00 0.00 0.00 81 1012.1
20180821004538 71 309 7.0 10.0 0.00 0.00 0.00 80 1012.2
20180821003033 72 306 5.0 9.0 0.00 0.00 0.00 77 1012.4
20180821001533 72 265 4.0 10.0 0.00 0.00 0.00 77 1012.4
20180821000028 71 286 7.0 11.0 0.00 0.00 0.00 79 1012.3
20180820234527 72 312 7.0 12.0 0.00 0.00 0.00 77 1012.3
20180820233051 73 270 5.0 9.0 0.00 0.00 0.00 75 1012.3
20180820231525 73 296 4.0 11.0 0.00 0.00 0.00 75 1012.5
20180820230022 72 292 5.0 11.0 0.00 0.00 0.00 77 1012.6
20180820224534 73 321 5.0 9.0 0.00 0.00 0.00 74 1012.6
20180820223036 76 248 2.0 4.0 0.00 0.00 0.00 71 1012.7
20180820221516 74 172 1.0 6.0 0.00 0.00 0.00 76 1012.9
20180820220023 72 169 6.0 10.0 0.00 0.00 0.00 77 1012.9
20180820214523 69 138 6.0 11.0 0.00 0.00 0.00 84 1013.1
20180820213020 70 141 8.0 13.0 0.00 0.00 0.00 81 1013.1
20180820211533 69 122 8.0 13.0 0.00 0.00 0.00 85 1013.3
20180820210016 69 159 10.0 14.0 0.00 0.00 0.00 83 1013.2
20180820204513 70 130 8.0 13.0 0.00 0.00 0.00 82 1013.2
20180820203015 71 171 8.0 14.0 0.00 0.00 0.00 79 1013.3
20180820201523 69 123 7.0 14.0 0.00 0.00 0.00 83 1013.3
20180820200012 70 139 9.0 16.0 0.00 0.00 0.00 82 1013.4
20180820194514 70 137 8.0 15.0 0.00 0.00 0.00 83 1013.5
20180820193011 69 180 7.0 13.0 0.00 0.00 0.00 83 1013.5
20180820191520 70 139 7.0 14.0 0.00 0.00 0.00 82 1013.5
20180820190009 73 134 6.0 9.0 0.00 0.00 0.00 75 1013.8
20180820184513 73 148 2.0 7.0 0.00 0.00 0.00 76 1013.9
20180820183011 74 202 2.0 5.0 0.00 0.00 0.00 75 1013.9
20180820181527 73 292 1.0 5.0 0.00 0.00 0.00 79 1013.9
20180820180007 71 313 2.0 5.0 0.00 0.00 0.00 82 1014.0
20180820174521 72 312 2.0 5.0 0.00 0.00 0.00 76 1013.9
20180820173018 73 24 1.0 6.0 0.00 0.00 0.00 78 1014.1
20180820171505 72 32 1.0 6.0 0.00 0.00 0.00 82 1014.1
20180820170057 70 110 1.0 7.0 0.00 0.00 0.00 85 1014.3
20180820164608 69 146 5.0 9.0 0.00 0.00 0.00 86 1014.3
20180820163124 68 136 5.0 11.0 0.00 0.00 0.00 86 1014.2
20180820161613 68 104 5.0 8.0 0.00 0.00 0.00 89 1014.2
20180820160059 66 129 6.0 10.0 0.00 0.00 0.00 93 1013.9
20180820154631 65 133 8.0 11.0 0.00 0.00 0.00 95 1013.8
20180820153137 64 114 4.0 9.0 0.00 0.00 0.00 97 1013.7
20180820151547 62 93 5.0 9.0 0.00 0.00 0.00 97 1013.9
20180820150141 62 131 3.0 6.0 0.00 0.00 0.00 97 1013.6
20180820144616 62 100 0.0 3.0 0.00 0.00 0.00 97 1013.4
20180820143109 61 94 6.0 8.0 0.00 0.00 0.00 96 1013.2
20180820141558 60 124 6.0 10.0 0.00 0.00 0.00 96 1013.1
20180820140037 60 80 7.0 11.0 0.00 0.00 0.00 95 1013.0
20180820134601 61 121 7.0 10.0 0.00 0.00 0.00 95 1013.0
20180820133036 62 142 5.0 8.0 0.00 0.00 0.00 94 1012.9
20180820131602 62 82 9.0 11.0 0.00 0.00 0.00 95 1012.5
20180820130051 61 121 6.0 9.0 0.00 0.00 0.00 95 1012.3
20180820124529 61 138 6.0 8.0 0.00 0.00 0.00 95 1012.3
20180820123030 60 126 8.0 12.0 0.00 0.00 0.00 95 1012.2
20180820121620 61 118 9.0 13.0 0.00 0.00 0.00 94 1012.2
20180820120045 62 144 10.0 12.0 0.00 0.00 0.00 89 1012.2
20180820114531 63 126 8.0 13.0 0.00 0.00 0.00 84 1012.0
20180820113025 63 96 10.0 11.0 0.00 0.00 0.00 85 1011.8
20180820111519 65 120 7.0 9.0 0.00 0.00 0.00 82 1011.9
20180820110014 66 94 6.0 8.0 0.00 0.00 0.00 78 1011.9
20180820104512 65 87 8.0 9.0 0.00 0.00 0.00 80 1011.8
20180820103015 67 139 5.0 6.0 0.00 0.00 0.00 77 1011.8
20180820101522 68 104 5.0 8.0 0.00 0.00 0.00 75 1011.7
20180820100009 68 90 6.0 9.0 0.00 0.00 0.00 74 1011.7
20180820094506 68 96 6.0 8.0 0.00 0.00 0.00 73 1011.7
20180820093007 67 91 6.0 7.0 0.00 0.00 0.00 77 1011.6
20180820090004 68 96 1.0 3.0 0.00 0.00 0.00 77 1011.7
20180820084505 67 96 4.0 6.0 0.00 0.00 0.00 79 1011.7
20180820083014 67 108 6.0 8.0 0.00 0.00 0.00 80 1011.6